sensor_id;sensor_type;location;lat;lon;timestamp;P1;durP1;ratioP1;P2;durP2;ratioP2
48623;SDS011;34422;45.802;16.114;2023-05-07T00:00:36;9.43;;;6.60;;
48623;SDS011;34422;45.802;16.114;2023-05-07T00:03:03;8.52;;;6.03;;
48623;SDS011;34422;45.802;16.114;2023-05-07T00:05:30;7.63;;;5.78;;
48623;SDS011;34422;45.802;16.114;2023-05-07T00:07:56;8.57;;;6.00;;
48623;SDS011;34422;45.802;16.114;2023-05-07T00:10:23;9.50;;;6.00;;
48623;SDS011;34422;45.802;16.114;2023-05-07T00:12:50;8.48;;;5.30;;
48623;SDS011;34422;45.802;16.114;2023-05-07T00:15:17;7.93;;;5.80;;
48623;SDS011;34422;45.802;16.114;2023-05-07T00:17:43;7.80;;;5.43;;
48623;SDS011;34422;45.802;16.114;2023-05-07T00:20:10;10.20;;;6.55;;
48623;SDS011;34422;45.802;16.114;2023-05-07T00:22:38;8.43;;;6.00;;
48623;SDS011;34422;45.802;16.114;2023-05-07T00:25:04;9.10;;;6.63;;
48623;SDS011;34422;45.802;16.114;2023-05-07T00:27:32;15.07;;;7.70;;
48623;SDS011;34422;45.802;16.114;2023-05-07T00:29:58;12.70;;;8.55;;
48623;SDS011;34422;45.802;16.114;2023-05-07T00:32:25;13.73;;;7.97;;
48623;SDS011;34422;45.802;16.114;2023-05-07T00:34:52;14.48;;;8.05;;
48623;SDS011;34422;45.802;16.114;2023-05-07T00:37:18;12.93;;;7.78;;
48623;SDS011;34422;45.802;16.114;2023-05-07T00:39:45;12.15;;;7.63;;
48623;SDS011;34422;45.802;16.114;2023-05-07T00:42:12;11.70;;;7.03;;
48623;SDS011;34422;45.802;16.114;2023-05-07T00:44:39;11.90;;;7.53;;
48623;SDS011;34422;45.802;16.114;2023-05-07T00:47:06;9.93;;;7.25;;
48623;SDS011;34422;45.802;16.114;2023-05-07T00:49:38;10.05;;;7.50;;
48623;SDS011;34422;45.802;16.114;2023-05-07T00:52:07;9.32;;;7.30;;
48623;SDS011;34422;45.802;16.114;2023-05-07T00:54:35;9.63;;;7.25;;
48623;SDS011;34422;45.802;16.114;2023-05-07T00:57:03;9.13;;;6.97;;
48623;SDS011;34422;45.802;16.114;2023-05-07T00:59:31;10.98;;;7.32;;
48623;SDS011;34422;45.802;16.114;2023-05-07T01:01:59;8.75;;;6.90;;
48623;SDS011;34422;45.802;16.114;2023-05-07T01:04:26;10.90;;;8.82;;
48623;SDS011;34422;45.802;16.114;2023-05-07T01:06:56;12.18;;;9.20;;
48623;SDS011;34422;45.802;16.114;2023-05-07T01:09:24;12.13;;;8.35;;
48623;SDS011;34422;45.802;16.114;2023-05-07T01:11:51;10.13;;;8.75;;
48623;SDS011;34422;45.802;16.114;2023-05-07T01:14:18;11.13;;;7.78;;
48623;SDS011;34422;45.802;16.114;2023-05-07T01:16:49;9.75;;;7.88;;
48623;SDS011;34422;45.802;16.114;2023-05-07T01:19:18;10.32;;;8.45;;
48623;SDS011;34422;45.802;16.114;2023-05-07T01:21:48;11.43;;;8.38;;
48623;SDS011;34422;45.802;16.114;2023-05-07T01:24:16;12.38;;;9.20;;
48623;SDS011;34422;45.802;16.114;2023-05-07T01:26:44;11.13;;;9.13;;
48623;SDS011;34422;45.802;16.114;2023-05-07T01:29:11;10.98;;;8.70;;
48623;SDS011;34422;45.802;16.114;2023-05-07T01:31:38;11.50;;;9.50;;
48623;SDS011;34422;45.802;16.114;2023-05-07T01:34:08;12.57;;;9.80;;
48623;SDS011;34422;45.802;16.114;2023-05-07T01:36:38;15.02;;;10.68;;
48623;SDS011;34422;45.802;16.114;2023-05-07T01:39:07;12.40;;;9.80;;
48623;SDS011;34422;45.802;16.114;2023-05-07T01:41:39;14.32;;;10.50;;
48623;SDS011;34422;45.802;16.114;2023-05-07T01:44:06;12.57;;;9.35;;
48623;SDS011;34422;45.802;16.114;2023-05-07T01:46:32;13.20;;;10.00;;
48623;SDS011;34422;45.802;16.114;2023-05-07T01:49:00;13.70;;;10.27;;
48623;SDS011;34422;45.802;16.114;2023-05-07T01:51:27;12.68;;;9.93;;
48623;SDS011;34422;45.802;16.114;2023-05-07T01:53:54;11.90;;;9.45;;
48623;SDS011;34422;45.802;16.114;2023-05-07T01:56:21;13.43;;;10.90;;
48623;SDS011;34422;45.802;16.114;2023-05-07T01:58:48;11.07;;;9.10;;
48623;SDS011;34422;45.802;16.114;2023-05-07T02:01:17;11.80;;;9.23;;
48623;SDS011;34422;45.802;16.114;2023-05-07T02:03:44;16.92;;;11.05;;
48623;SDS011;34422;45.802;16.114;2023-05-07T02:06:11;13.75;;;10.10;;
48623;SDS011;34422;45.802;16.114;2023-05-07T02:08:38;13.25;;;10.73;;
48623;SDS011;34422;45.802;16.114;2023-05-07T02:11:05;11.80;;;10.20;;
48623;SDS011;34422;45.802;16.114;2023-05-07T02:13:33;14.02;;;9.73;;
48623;SDS011;34422;45.802;16.114;2023-05-07T02:16:03;13.70;;;10.23;;
48623;SDS011;34422;45.802;16.114;2023-05-07T02:18:30;13.30;;;10.18;;
48623;SDS011;34422;45.802;16.114;2023-05-07T02:20:58;13.60;;;10.30;;
48623;SDS011;34422;45.802;16.114;2023-05-07T02:23:24;15.02;;;11.38;;
48623;SDS011;34422;45.802;16.114;2023-05-07T02:25:51;15.68;;;10.93;;
48623;SDS011;34422;45.802;16.114;2023-05-07T02:28:18;12.38;;;9.75;;
48623;SDS011;34422;45.802;16.114;2023-05-07T02:30:45;12.82;;;8.90;;
48623;SDS011;34422;45.802;16.114;2023-05-07T02:33:11;13.27;;;9.73;;
48623;SDS011;34422;45.802;16.114;2023-05-07T02:35:40;12.38;;;9.27;;
48623;SDS011;34422;45.802;16.114;2023-05-07T02:38:06;14.80;;;10.07;;
48623;SDS011;34422;45.802;16.114;2023-05-07T02:40:33;14.93;;;10.15;;
48623;SDS011;34422;45.802;16.114;2023-05-07T02:43:03;12.02;;;9.68;;
48623;SDS011;34422;45.802;16.114;2023-05-07T02:45:32;12.48;;;9.57;;
48623;SDS011;34422;45.802;16.114;2023-05-07T02:47:59;11.30;;;9.35;;
48623;SDS011;34422;45.802;16.114;2023-05-07T02:50:26;16.17;;;10.68;;
48623;SDS011;34422;45.802;16.114;2023-05-07T02:52:53;15.15;;;10.52;;
48623;SDS011;34422;45.802;16.114;2023-05-07T02:55:23;14.90;;;11.80;;
48623;SDS011;34422;45.802;16.114;2023-05-07T02:57:50;15.10;;;12.40;;
48623;SDS011;34422;45.802;16.114;2023-05-07T03:00:17;14.40;;;12.02;;
48623;SDS011;34422;45.802;16.114;2023-05-07T03:02:45;16.85;;;11.68;;
48623;SDS011;34422;45.802;16.114;2023-05-07T03:05:12;13.43;;;10.50;;
48623;SDS011;34422;45.802;16.114;2023-05-07T03:07:40;14.40;;;11.40;;
48623;SDS011;34422;45.802;16.114;2023-05-07T03:10:11;17.63;;;11.90;;
48623;SDS011;34422;45.802;16.114;2023-05-07T03:12:38;17.73;;;11.93;;
48623;SDS011;34422;45.802;16.114;2023-05-07T03:15:05;16.00;;;12.73;;
48623;SDS011;34422;45.802;16.114;2023-05-07T03:17:33;17.95;;;13.35;;
48623;SDS011;34422;45.802;16.114;2023-05-07T03:19:59;19.00;;;13.13;;
48623;SDS011;34422;45.802;16.114;2023-05-07T03:22:26;16.83;;;13.00;;
48623;SDS011;34422;45.802;16.114;2023-05-07T03:24:53;15.95;;;12.27;;
48623;SDS011;34422;45.802;16.114;2023-05-07T03:27:20;14.93;;;11.75;;
48623;SDS011;34422;45.802;16.114;2023-05-07T03:29:47;16.77;;;12.75;;
48623;SDS011;34422;45.802;16.114;2023-05-07T03:32:14;15.90;;;12.60;;
48623;SDS011;34422;45.802;16.114;2023-05-07T03:34:41;16.42;;;13.40;;
48623;SDS011;34422;45.802;16.114;2023-05-07T03:37:08;16.48;;;12.43;;
48623;SDS011;34422;45.802;16.114;2023-05-07T03:39:35;16.85;;;12.50;;
48623;SDS011;34422;45.802;16.114;2023-05-07T03:42:02;15.55;;;12.95;;
48623;SDS011;34422;45.802;16.114;2023-05-07T03:44:29;15.82;;;11.80;;
48623;SDS011;34422;45.802;16.114;2023-05-07T03:47:14;15.68;;;11.88;;
48623;SDS011;34422;45.802;16.114;2023-05-07T03:49:47;16.65;;;11.68;;
48623;SDS011;34422;45.802;16.114;2023-05-07T03:52:15;18.75;;;13.10;;
48623;SDS011;34422;45.802;16.114;2023-05-07T03:54:42;15.35;;;11.55;;
48623;SDS011;34422;45.802;16.114;2023-05-07T03:57:08;13.98;;;11.20;;
48623;SDS011;34422;45.802;16.114;2023-05-07T03:59:38;18.33;;;12.55;;
48623;SDS011;34422;45.802;16.114;2023-05-07T04:02:05;15.43;;;11.48;;
48623;SDS011;34422;45.802;16.114;2023-05-07T04:04:31;16.17;;;11.95;;
48623;SDS011;34422;45.802;16.114;2023-05-07T04:06:59;15.40;;;11.85;;
48623;SDS011;34422;45.802;16.114;2023-05-07T04:09:27;14.52;;;11.57;;
48623;SDS011;34422;45.802;16.114;2023-05-07T04:11:54;15.40;;;11.18;;
48623;SDS011;34422;45.802;16.114;2023-05-07T04:14:20;12.98;;;10.68;;
48623;SDS011;34422;45.802;16.114;2023-05-07T04:16:47;12.90;;;10.45;;
48623;SDS011;34422;45.802;16.114;2023-05-07T04:19:14;13.23;;;10.77;;
48623;SDS011;34422;45.802;16.114;2023-05-07T04:21:42;14.10;;;10.77;;
48623;SDS011;34422;45.802;16.114;2023-05-07T04:24:09;12.55;;;9.57;;
48623;SDS011;34422;45.802;16.114;2023-05-07T04:26:36;12.95;;;9.93;;
48623;SDS011;34422;45.802;16.114;2023-05-07T04:29:03;12.63;;;8.70;;
48623;SDS011;34422;45.802;16.114;2023-05-07T04:31:30;12.68;;;9.40;;
48623;SDS011;34422;45.802;16.114;2023-05-07T04:33:57;12.95;;;9.68;;
48623;SDS011;34422;45.802;16.114;2023-05-07T04:36:25;13.43;;;9.82;;
48623;SDS011;34422;45.802;16.114;2023-05-07T04:38:53;11.70;;;10.07;;
48623;SDS011;34422;45.802;16.114;2023-05-07T04:41:21;12.52;;;9.60;;
48623;SDS011;34422;45.802;16.114;2023-05-07T04:43:47;13.52;;;10.30;;
48623;SDS011;34422;45.802;16.114;2023-05-07T04:46:14;13.70;;;9.75;;
48623;SDS011;34422;45.802;16.114;2023-05-07T04:48:41;11.57;;;9.57;;
48623;SDS011;34422;45.802;16.114;2023-05-07T04:51:07;16.35;;;10.15;;
48623;SDS011;34422;45.802;16.114;2023-05-07T04:53:34;18.48;;;11.48;;
48623;SDS011;34422;45.802;16.114;2023-05-07T04:56:01;12.48;;;9.75;;
48623;SDS011;34422;45.802;16.114;2023-05-07T04:58:28;11.43;;;9.25;;
48623;SDS011;34422;45.802;16.114;2023-05-07T05:00:58;12.70;;;9.20;;
48623;SDS011;34422;45.802;16.114;2023-05-07T05:03:25;12.40;;;9.38;;
48623;SDS011;34422;45.802;16.114;2023-05-07T05:05:52;12.60;;;9.10;;
48623;SDS011;34422;45.802;16.114;2023-05-07T05:08:23;13.35;;;9.48;;
48623;SDS011;34422;45.802;16.114;2023-05-07T05:10:50;14.05;;;9.23;;
48623;SDS011;34422;45.802;16.114;2023-05-07T05:13:17;12.77;;;8.70;;
48623;SDS011;34422;45.802;16.114;2023-05-07T05:15:43;10.82;;;8.13;;
48623;SDS011;34422;45.802;16.114;2023-05-07T05:18:10;10.07;;;7.75;;
48623;SDS011;34422;45.802;16.114;2023-05-07T05:20:37;10.60;;;8.57;;
48623;SDS011;34422;45.802;16.114;2023-05-07T05:23:04;11.15;;;7.55;;
48623;SDS011;34422;45.802;16.114;2023-05-07T05:25:36;11.35;;;7.45;;
48623;SDS011;34422;45.802;16.114;2023-05-07T05:28:05;10.13;;;7.20;;
48623;SDS011;34422;45.802;16.114;2023-05-07T05:30:38;9.15;;;7.25;;
48623;SDS011;34422;45.802;16.114;2023-05-07T05:33:05;9.50;;;8.23;;
48623;SDS011;34422;45.802;16.114;2023-05-07T05:35:32;10.10;;;6.93;;
48623;SDS011;34422;45.802;16.114;2023-05-07T05:38:02;10.68;;;7.13;;
48623;SDS011;34422;45.802;16.114;2023-05-07T05:40:29;9.25;;;6.63;;
48623;SDS011;34422;45.802;16.114;2023-05-07T05:42:57;10.65;;;7.25;;
48623;SDS011;34422;45.802;16.114;2023-05-07T05:45:26;10.98;;;7.82;;
48623;SDS011;34422;45.802;16.114;2023-05-07T05:47:53;10.07;;;7.00;;
48623;SDS011;34422;45.802;16.114;2023-05-07T05:50:27;10.55;;;7.28;;
48623;SDS011;34422;45.802;16.114;2023-05-07T05:52:59;8.95;;;6.95;;
48623;SDS011;34422;45.802;16.114;2023-05-07T05:55:26;8.80;;;6.40;;
48623;SDS011;34422;45.802;16.114;2023-05-07T05:57:53;8.18;;;5.97;;
48623;SDS011;34422;45.802;16.114;2023-05-07T06:00:20;10.50;;;6.53;;
48623;SDS011;34422;45.802;16.114;2023-05-07T06:02:48;8.40;;;5.93;;
48623;SDS011;34422;45.802;16.114;2023-05-07T06:05:20;8.02;;;5.90;;
48623;SDS011;34422;45.802;16.114;2023-05-07T06:07:50;7.28;;;5.70;;
48623;SDS011;34422;45.802;16.114;2023-05-07T06:10:42;8.95;;;6.05;;
48623;SDS011;34422;45.802;16.114;2023-05-07T06:13:20;7.82;;;5.72;;
48623;SDS011;34422;45.802;16.114;2023-05-07T06:15:53;7.68;;;5.38;;
48623;SDS011;34422;45.802;16.114;2023-05-07T06:18:21;12.15;;;6.80;;
48623;SDS011;34422;45.802;16.114;2023-05-07T06:21:13;8.65;;;5.70;;
48623;SDS011;34422;45.802;16.114;2023-05-07T06:24:13;7.82;;;5.40;;
48623;SDS011;34422;45.802;16.114;2023-05-07T06:27:01;8.77;;;5.38;;
48623;SDS011;34422;45.802;16.114;2023-05-07T06:29:35;8.10;;;5.68;;
48623;SDS011;34422;45.802;16.114;2023-05-07T06:32:08;7.05;;;5.38;;
48623;SDS011;34422;45.802;16.114;2023-05-07T06:34:40;8.48;;;5.57;;
48623;SDS011;34422;45.802;16.114;2023-05-07T06:37:07;7.82;;;5.85;;
48623;SDS011;34422;45.802;16.114;2023-05-07T06:39:34;8.65;;;6.05;;
48623;SDS011;34422;45.802;16.114;2023-05-07T06:42:03;8.20;;;5.57;;
48623;SDS011;34422;45.802;16.114;2023-05-07T06:44:37;7.97;;;6.20;;
48623;SDS011;34422;45.802;16.114;2023-05-07T06:47:10;8.50;;;5.55;;
48623;SDS011;34422;45.802;16.114;2023-05-07T06:49:37;9.15;;;5.38;;
48623;SDS011;34422;45.802;16.114;2023-05-07T06:52:09;7.53;;;5.05;;
48623;SDS011;34422;45.802;16.114;2023-05-07T06:54:46;8.10;;;5.90;;
48623;SDS011;34422;45.802;16.114;2023-05-07T06:57:16;8.98;;;5.80;;
48623;SDS011;34422;45.802;16.114;2023-05-07T06:59:43;7.55;;;5.35;;
48623;SDS011;34422;45.802;16.114;2023-05-07T07:02:13;6.55;;;4.65;;
48623;SDS011;34422;45.802;16.114;2023-05-07T07:04:42;7.45;;;5.22;;
48623;SDS011;34422;45.802;16.114;2023-05-07T07:07:09;7.63;;;5.05;;
48623;SDS011;34422;45.802;16.114;2023-05-07T07:09:44;8.23;;;5.03;;
48623;SDS011;34422;45.802;16.114;2023-05-07T07:12:13;8.48;;;5.00;;
48623;SDS011;34422;45.802;16.114;2023-05-07T07:14:43;9.23;;;5.97;;
48623;SDS011;34422;45.802;16.114;2023-05-07T07:17:11;7.05;;;5.10;;
48623;SDS011;34422;45.802;16.114;2023-05-07T07:19:51;9.10;;;5.00;;
48623;SDS011;34422;45.802;16.114;2023-05-07T07:22:21;6.55;;;3.92;;
48623;SDS011;34422;45.802;16.114;2023-05-07T07:25:05;7.20;;;3.83;;
48623;SDS011;34422;45.802;16.114;2023-05-07T07:27:45;6.53;;;4.53;;
48623;SDS011;34422;45.802;16.114;2023-05-07T07:30:12;7.10;;;4.35;;
48623;SDS011;34422;45.802;16.114;2023-05-07T07:32:39;7.30;;;4.90;;
48623;SDS011;34422;45.802;16.114;2023-05-07T07:35:06;7.88;;;5.25;;
48623;SDS011;34422;45.802;16.114;2023-05-07T07:37:48;7.45;;;4.78;;
48623;SDS011;34422;45.802;16.114;2023-05-07T07:40:17;7.43;;;6.00;;
48623;SDS011;34422;45.802;16.114;2023-05-07T07:42:45;7.50;;;5.95;;
48623;SDS011;34422;45.802;16.114;2023-05-07T07:45:15;5.90;;;3.60;;
48623;SDS011;34422;45.802;16.114;2023-05-07T07:47:42;5.85;;;3.78;;
48623;SDS011;34422;45.802;16.114;2023-05-07T07:50:09;6.10;;;4.20;;
48623;SDS011;34422;45.802;16.114;2023-05-07T07:55:06;5.72;;;4.10;;
48623;SDS011;34422;45.802;16.114;2023-05-07T07:57:48;6.90;;;3.95;;
48623;SDS011;34422;45.802;16.114;2023-05-07T08:00:44;6.07;;;3.72;;
48623;SDS011;34422;45.802;16.114;2023-05-07T08:03:48;5.75;;;3.67;;
48623;SDS011;34422;45.802;16.114;2023-05-07T08:06:57;5.90;;;4.10;;
48623;SDS011;34422;45.802;16.114;2023-05-07T08:09:24;5.13;;;3.40;;
48623;SDS011;34422;45.802;16.114;2023-05-07T08:14:56;6.63;;;3.72;;
48623;SDS011;34422;45.802;16.114;2023-05-07T08:17:23;5.80;;;3.67;;
48623;SDS011;34422;45.802;16.114;2023-05-07T08:20:04;5.22;;;3.45;;
48623;SDS011;34422;45.802;16.114;2023-05-07T08:22:31;5.55;;;3.22;;
48623;SDS011;34422;45.802;16.114;2023-05-07T08:24:58;5.88;;;4.05;;
48623;SDS011;34422;45.802;16.114;2023-05-07T08:27:37;5.72;;;4.25;;
48623;SDS011;34422;45.802;16.114;2023-05-07T08:36:18;6.65;;;3.60;;
48623;SDS011;34422;45.802;16.114;2023-05-07T08:38:45;5.78;;;3.80;;
48623;SDS011;34422;45.802;16.114;2023-05-07T08:41:16;6.28;;;3.88;;
48623;SDS011;34422;45.802;16.114;2023-05-07T08:44:04;4.78;;;3.65;;
48623;SDS011;34422;45.802;16.114;2023-05-07T08:47:06;6.97;;;3.85;;
48623;SDS011;34422;45.802;16.114;2023-05-07T08:49:34;6.88;;;4.10;;
48623;SDS011;34422;45.802;16.114;2023-05-07T08:52:01;6.38;;;4.45;;
48623;SDS011;34422;45.802;16.114;2023-05-07T08:54:30;5.15;;;3.28;;
48623;SDS011;34422;45.802;16.114;2023-05-07T08:57:00;5.40;;;3.30;;
48623;SDS011;34422;45.802;16.114;2023-05-07T08:59:34;4.82;;;3.60;;
48623;SDS011;34422;45.802;16.114;2023-05-07T09:02:25;5.47;;;3.38;;
48623;SDS011;34422;45.802;16.114;2023-05-07T09:04:55;5.32;;;3.53;;
48623;SDS011;34422;45.802;16.114;2023-05-07T09:07:41;5.55;;;3.63;;
48623;SDS011;34422;45.802;16.114;2023-05-07T09:10:20;5.65;;;3.85;;
48623;SDS011;34422;45.802;16.114;2023-05-07T09:13:37;5.05;;;3.25;;
48623;SDS011;34422;45.802;16.114;2023-05-07T09:15:47;5.70;;;3.72;;
48623;SDS011;34422;45.802;16.114;2023-05-07T09:18:46;5.93;;;3.70;;
48623;SDS011;34422;45.802;16.114;2023-05-07T09:21:17;5.82;;;3.25;;
48623;SDS011;34422;45.802;16.114;2023-05-07T09:23:44;5.35;;;4.20;;
48623;SDS011;34422;45.802;16.114;2023-05-07T09:26:11;5.43;;;3.45;;
48623;SDS011;34422;45.802;16.114;2023-05-07T09:28:39;4.90;;;3.38;;
48623;SDS011;34422;45.802;16.114;2023-05-07T09:31:08;5.45;;;3.78;;
48623;SDS011;34422;45.802;16.114;2023-05-07T09:33:39;7.57;;;3.72;;
48623;SDS011;34422;45.802;16.114;2023-05-07T09:36:07;6.75;;;3.70;;
48623;SDS011;34422;45.802;16.114;2023-05-07T09:38:36;4.83;;;3.43;;
48623;SDS011;34422;45.802;16.114;2023-05-07T09:41:08;5.05;;;3.22;;
48623;SDS011;34422;45.802;16.114;2023-05-07T10:05:32;5.15;;;3.38;;
48623;SDS011;34422;45.802;16.114;2023-05-07T10:08:08;7.20;;;4.40;;
48623;SDS011;34422;45.802;16.114;2023-05-07T10:11:34;6.10;;;4.00;;
48623;SDS011;34422;45.802;16.114;2023-05-07T10:15:03;5.57;;;3.92;;
48623;SDS011;34422;45.802;16.114;2023-05-07T10:17:47;6.75;;;4.07;;
48623;SDS011;34422;45.802;16.114;2023-05-07T10:20:26;6.72;;;3.90;;
48623;SDS011;34422;45.802;16.114;2023-05-07T10:23:11;5.00;;;3.45;;
48623;SDS011;34422;45.802;16.114;2023-05-07T10:25:47;6.95;;;4.18;;
48623;SDS011;34422;45.802;16.114;2023-05-07T10:32:54;6.25;;;3.58;;
48623;SDS011;34422;45.802;16.114;2023-05-07T10:36:22;4.95;;;3.53;;
48623;SDS011;34422;45.802;16.114;2023-05-07T10:39:04;5.45;;;4.03;;
48623;SDS011;34422;45.802;16.114;2023-05-07T10:41:39;6.05;;;3.80;;
48623;SDS011;34422;45.802;16.114;2023-05-07T10:44:27;5.20;;;3.65;;
48623;SDS011;34422;45.802;16.114;2023-05-07T10:47:16;7.90;;;4.35;;
48623;SDS011;34422;45.802;16.114;2023-05-07T10:50:19;5.60;;;3.55;;
48623;SDS011;34422;45.802;16.114;2023-05-07T10:53:20;6.00;;;4.07;;
48623;SDS011;34422;45.802;16.114;2023-05-07T10:56:39;5.28;;;4.03;;
48623;SDS011;34422;45.802;16.114;2023-05-07T10:59:51;7.80;;;4.10;;
48623;SDS011;34422;45.802;16.114;2023-05-07T11:05:41;8.25;;;4.40;;
48623;SDS011;34422;45.802;16.114;2023-05-07T11:08:20;6.25;;;4.00;;
48623;SDS011;34422;45.802;16.114;2023-05-07T11:11:44;6.07;;;4.32;;
48623;SDS011;34422;45.802;16.114;2023-05-07T11:17:11;6.15;;;4.20;;
48623;SDS011;34422;45.802;16.114;2023-05-07T11:19:51;5.57;;;3.85;;
48623;SDS011;34422;45.802;16.114;2023-05-07T11:24:59;7.70;;;4.15;;
48623;SDS011;34422;45.802;16.114;2023-05-07T11:27:29;7.45;;;4.10;;
48623;SDS011;34422;45.802;16.114;2023-05-07T11:29:57;5.07;;;3.88;;
48623;SDS011;34422;45.802;16.114;2023-05-07T11:32:28;5.97;;;3.70;;
48623;SDS011;34422;45.802;16.114;2023-05-07T11:35:00;6.00;;;3.97;;
48623;SDS011;34422;45.802;16.114;2023-05-07T11:37:27;6.03;;;4.70;;
48623;SDS011;34422;45.802;16.114;2023-05-07T11:40:05;7.50;;;4.40;;
48623;SDS011;34422;45.802;16.114;2023-05-07T11:42:35;6.88;;;4.15;;
48623;SDS011;34422;45.802;16.114;2023-05-07T11:45:07;7.00;;;4.60;;
48623;SDS011;34422;45.802;16.114;2023-05-07T11:47:34;7.22;;;4.07;;
48623;SDS011;34422;45.802;16.114;2023-05-07T11:50:03;6.18;;;4.32;;
48623;SDS011;34422;45.802;16.114;2023-05-07T11:52:34;8.82;;;4.90;;
48623;SDS011;34422;45.802;16.114;2023-05-07T11:55:06;4.88;;;3.55;;
48623;SDS011;34422;45.802;16.114;2023-05-07T11:57:33;5.50;;;3.97;;
48623;SDS011;34422;45.802;16.114;2023-05-07T12:00:01;6.22;;;3.55;;
48623;SDS011;34422;45.802;16.114;2023-05-07T12:02:30;6.47;;;3.65;;
48623;SDS011;34422;45.802;16.114;2023-05-07T12:04:59;6.28;;;4.15;;
48623;SDS011;34422;45.802;16.114;2023-05-07T12:07:26;5.43;;;4.10;;
48623;SDS011;34422;45.802;16.114;2023-05-07T12:09:53;8.00;;;3.75;;
48623;SDS011;34422;45.802;16.114;2023-05-07T12:12:20;5.30;;;3.70;;
48623;SDS011;34422;45.802;16.114;2023-05-07T12:14:47;6.63;;;3.72;;
48623;SDS011;34422;45.802;16.114;2023-05-07T12:17:14;10.25;;;5.22;;
48623;SDS011;34422;45.802;16.114;2023-05-07T12:19:42;7.80;;;4.47;;
48623;SDS011;34422;45.802;16.114;2023-05-07T12:22:11;7.30;;;4.63;;
48623;SDS011;34422;45.802;16.114;2023-05-07T12:27:16;5.80;;;3.75;;
48623;SDS011;34422;45.802;16.114;2023-05-07T12:29:44;6.20;;;3.83;;
48623;SDS011;34422;45.802;16.114;2023-05-07T12:32:13;7.03;;;3.72;;
48623;SDS011;34422;45.802;16.114;2023-05-07T12:34:41;6.72;;;4.07;;
48623;SDS011;34422;45.802;16.114;2023-05-07T12:37:09;5.80;;;3.95;;
48623;SDS011;34422;45.802;16.114;2023-05-07T12:39:36;6.90;;;4.03;;
48623;SDS011;34422;45.802;16.114;2023-05-07T12:42:03;7.63;;;4.28;;
48623;SDS011;34422;45.802;16.114;2023-05-07T12:44:30;5.35;;;4.05;;
48623;SDS011;34422;45.802;16.114;2023-05-07T12:46:58;8.27;;;4.78;;
48623;SDS011;34422;45.802;16.114;2023-05-07T12:49:28;5.78;;;3.95;;
48623;SDS011;34422;45.802;16.114;2023-05-07T12:51:54;5.65;;;3.38;;
48623;SDS011;34422;45.802;16.114;2023-05-07T12:54:29;7.05;;;4.45;;
48623;SDS011;34422;45.802;16.114;2023-05-07T12:57:06;7.25;;;4.30;;
48623;SDS011;34422;45.802;16.114;2023-05-07T12:59:38;6.03;;;3.97;;
48623;SDS011;34422;45.802;16.114;2023-05-07T13:02:06;7.32;;;3.60;;
48623;SDS011;34422;45.802;16.114;2023-05-07T13:04:34;8.60;;;3.78;;
48623;SDS011;34422;45.802;16.114;2023-05-07T13:07:02;6.30;;;4.07;;
48623;SDS011;34422;45.802;16.114;2023-05-07T13:09:29;7.68;;;3.88;;
48623;SDS011;34422;45.802;16.114;2023-05-07T13:11:55;5.95;;;4.03;;
48623;SDS011;34422;45.802;16.114;2023-05-07T13:14:22;5.00;;;3.60;;
48623;SDS011;34422;45.802;16.114;2023-05-07T13:16:49;6.93;;;3.90;;
48623;SDS011;34422;45.802;16.114;2023-05-07T13:19:16;5.97;;;3.60;;
48623;SDS011;34422;45.802;16.114;2023-05-07T13:21:43;5.72;;;3.63;;
48623;SDS011;34422;45.802;16.114;2023-05-07T13:24:10;8.32;;;5.97;;
48623;SDS011;34422;45.802;16.114;2023-05-07T13:26:37;7.20;;;4.43;;
48623;SDS011;34422;45.802;16.114;2023-05-07T13:29:06;6.75;;;3.58;;
48623;SDS011;34422;45.802;16.114;2023-05-07T13:31:33;5.07;;;3.65;;
48623;SDS011;34422;45.802;16.114;2023-05-07T13:34:03;7.28;;;4.20;;
48623;SDS011;34422;45.802;16.114;2023-05-07T13:36:30;5.25;;;3.58;;
48623;SDS011;34422;45.802;16.114;2023-05-07T13:39:04;5.10;;;3.45;;
48623;SDS011;34422;45.802;16.114;2023-05-07T13:41:53;5.88;;;4.20;;
48623;SDS011;34422;45.802;16.114;2023-05-07T13:44:20;7.03;;;4.00;;
48623;SDS011;34422;45.802;16.114;2023-05-07T13:46:47;5.55;;;3.78;;
48623;SDS011;34422;45.802;16.114;2023-05-07T13:49:14;6.35;;;3.50;;
48623;SDS011;34422;45.802;16.114;2023-05-07T13:51:41;6.75;;;4.53;;
48623;SDS011;34422;45.802;16.114;2023-05-07T13:54:10;5.75;;;3.90;;
48623;SDS011;34422;45.802;16.114;2023-05-07T13:56:36;5.32;;;3.40;;
48623;SDS011;34422;45.802;16.114;2023-05-07T13:59:03;6.13;;;3.70;;
48623;SDS011;34422;45.802;16.114;2023-05-07T14:01:33;6.78;;;4.50;;
48623;SDS011;34422;45.802;16.114;2023-05-07T14:04:06;6.18;;;3.67;;
48623;SDS011;34422;45.802;16.114;2023-05-07T14:06:34;6.70;;;3.83;;
48623;SDS011;34422;45.802;16.114;2023-05-07T14:09:03;5.85;;;3.63;;
48623;SDS011;34422;45.802;16.114;2023-05-07T14:11:30;4.90;;;3.35;;
48623;SDS011;34422;45.802;16.114;2023-05-07T14:14:00;4.32;;;3.25;;
48623;SDS011;34422;45.802;16.114;2023-05-07T14:16:29;4.95;;;3.30;;
48623;SDS011;34422;45.802;16.114;2023-05-07T14:18:57;4.95;;;3.33;;
48623;SDS011;34422;45.802;16.114;2023-05-07T14:21:23;5.25;;;3.35;;
48623;SDS011;34422;45.802;16.114;2023-05-07T14:23:50;4.75;;;3.05;;
48623;SDS011;34422;45.802;16.114;2023-05-07T14:26:17;5.43;;;3.28;;
48623;SDS011;34422;45.802;16.114;2023-05-07T14:28:44;6.43;;;3.92;;
48623;SDS011;34422;45.802;16.114;2023-05-07T14:31:12;7.85;;;4.20;;
48623;SDS011;34422;45.802;16.114;2023-05-07T14:33:39;6.95;;;3.88;;
48623;SDS011;34422;45.802;16.114;2023-05-07T14:36:06;6.75;;;3.80;;
48623;SDS011;34422;45.802;16.114;2023-05-07T14:38:33;6.15;;;4.30;;
48623;SDS011;34422;45.802;16.114;2023-05-07T14:40:59;5.85;;;4.03;;
48623;SDS011;34422;45.802;16.114;2023-05-07T14:43:27;6.75;;;4.53;;
48623;SDS011;34422;45.802;16.114;2023-05-07T14:45:53;5.50;;;3.83;;
48623;SDS011;34422;45.802;16.114;2023-05-07T14:48:20;5.43;;;3.78;;
48623;SDS011;34422;45.802;16.114;2023-05-07T14:50:47;6.05;;;4.47;;
48623;SDS011;34422;45.802;16.114;2023-05-07T14:53:15;5.32;;;3.95;;
48623;SDS011;34422;45.802;16.114;2023-05-07T14:55:42;8.82;;;4.65;;
48623;SDS011;34422;45.802;16.114;2023-05-07T14:58:10;5.43;;;4.10;;
48623;SDS011;34422;45.802;16.114;2023-05-07T15:00:37;6.10;;;4.20;;
48623;SDS011;34422;45.802;16.114;2023-05-07T15:03:07;6.43;;;3.72;;
48623;SDS011;34422;45.802;16.114;2023-05-07T15:05:36;6.03;;;3.60;;
48623;SDS011;34422;45.802;16.114;2023-05-07T15:08:04;6.53;;;4.55;;
48623;SDS011;34422;45.802;16.114;2023-05-07T15:10:33;5.50;;;4.10;;
48623;SDS011;34422;45.802;16.114;2023-05-07T15:13:07;6.53;;;3.95;;
48623;SDS011;34422;45.802;16.114;2023-05-07T15:15:35;7.97;;;4.38;;
48623;SDS011;34422;45.802;16.114;2023-05-07T15:18:02;6.85;;;4.75;;
48623;SDS011;34422;45.802;16.114;2023-05-07T15:20:29;6.00;;;4.55;;
48623;SDS011;34422;45.802;16.114;2023-05-07T15:22:56;7.90;;;5.47;;
48623;SDS011;34422;45.802;16.114;2023-05-07T15:25:24;6.85;;;5.03;;
48623;SDS011;34422;45.802;16.114;2023-05-07T15:27:51;8.88;;;5.50;;
48623;SDS011;34422;45.802;16.114;2023-05-07T15:30:18;8.93;;;4.72;;
48623;SDS011;34422;45.802;16.114;2023-05-07T15:32:46;6.05;;;4.47;;
48623;SDS011;34422;45.802;16.114;2023-05-07T15:35:13;6.72;;;5.07;;
48623;SDS011;34422;45.802;16.114;2023-05-07T15:37:40;6.47;;;4.55;;
48623;SDS011;34422;45.802;16.114;2023-05-07T15:40:07;8.05;;;5.15;;